Latest Weather Observations for Fitzroy Crossing

IDW60801

Issued at 11:33 pm WST Friday 29 July 2016 (issued every 30 minutes, with the page automatically refreshed every 10 minutes)

About weather observations | Map of weather stations | Latest weather observations for WA | Other Formats
Station Details ID: 003093 Name: FITZROY CROSSING AERO Lat: -18.18 Lon: 125.56 Height: 114.5 m
Data from the previous 72 hours. | See also: Recent months at Fitzroy Crossing
Date/Time
WST
Temp
°C
App
Temp
°C
Dew
Point
°C
Rel
Hum
%
Delta-T
°C
Wind Press
QNH
hPa
Press
MSL
hPa
Rain since
9am
mm
Dir  Spd
km/h
Gust
km/h
Spd
kts
Gust
kts
29/11:30pm 14.2 12.7 2.8 46 5.1 CALM 0 0 0 0 1016.5 1016.1 0.0
29/11:00pm 13.8 11.4 2.1 45 5.1 NNE 4 7 2 4 1016.4 1016.0 0.0
29/10:30pm 14.6 11.5 1.2 40 5.8 N 7 9 4 5 1016.6 1016.2 0.0
29/10:00pm 18.6 14.9 2.4 34 7.5 ESE 11 15 6 8 1016.7 1016.3 0.0
29/09:30pm 18.1 14.5 2.8 36 7.1 SE 11 13 6 7 1016.6 1016.2 0.0
29/09:00pm 18.8 15.3 3.4 36 7.2 SE 11 13 6 7 1016.6 1016.2 0.0
29/08:30pm 19.5 16.3 2.8 33 7.8 ESE 9 11 5 6 1016.5 1016.1 0.0
29/08:00pm 20.1 16.6 3.3 33 8.0 ESE 11 11 6 6 1016.3 1015.9 0.0
29/07:30pm 20.7 17.1 3.0 31 8.4 ESE 11 11 6 6 1016.0 1015.6 0.0
29/07:00pm 21.3 17.7 3.0 30 8.7 ESE 11 13 6 7 1015.8 1015.4 0.0
29/06:30pm 22.1 18.9 2.8 28 9.2 ESE 9 11 5 6 1015.5 1015.1 0.0
29/06:00pm 22.9 19.6 2.4 26 9.8 ESE 9 11 5 6 1015.2 1014.8 0.0
29/05:30pm 24.8 21.0 1.7 22 11.0 ESE 11 13 6 7 1014.9 1014.5 0.0
29/05:00pm 27.3 23.4 0.9 18 12.6 ESE 11 17 6 9 1014.5 1014.1 0.0
29/04:30pm 28.7 24.3 0.4 16 13.6 ESE 13 19 7 10 1014.3 1013.9 0.0
29/04:00pm 29.4 24.3 1.0 16 13.8 ESE 17 26 9 14 1014.3 1013.9 0.0
29/03:30pm 29.9 24.9 1.4 16 14.0 SE 17 26 9 14 1014.2 1013.8 0.0
29/03:00pm 30.4 25.7 0.9 15 14.4 ESE 15 22 8 12 1014.2 1013.8 0.0
29/02:30pm 29.9 24.2 -0.5 14 14.5 ESE 19 30 10 16 1014.3 1013.9 0.0
29/02:00pm 30.0 24.3 -0.4 14 14.5 ESE 19 26 10 14 1014.5 1014.1 0.0
29/01:30pm 29.9 25.0 -0.5 14 14.5 ENE 15 24 8 13 1014.9 1014.5 0.0
29/01:00pm 29.7 24.4 -0.6 14 14.3 E 17 26 9 14 1015.3 1014.9 0.0
29/12:30pm 29.0 23.2 -1.2 14 14.1 E 19 28 10 15 1015.9 1015.5 0.0
29/12:00pm 28.6 23.3 -0.5 15 13.7 E 17 28 9 15 1016.5 1016.1 0.0
29/11:30am 28.4 22.6 0.2 16 13.4 ENE 20 33 11 18 1017.1 1016.7 0.0
29/11:00am 27.9 21.3 -0.2 16 13.2 ENE 24 33 13 18 1017.6 1017.2 0.0
29/10:30am 27.6 21.5 0.4 17 12.9 ENE 22 33 12 18 1018.2 1017.8 0.0
29/10:00am 26.5 20.6 -0.5 17 12.5 E 20 30 11 16 1018.7 1018.3 0.0
29/09:30am 25.8 20.7 0.5 19 11.9 E 17 24 9 13 1019.0 1018.6 0.0
29/09:00am 23.8 18.2 0.2 21 10.8 E 19 28 10 15 1019.4 1019.0 0.0
29/08:30am 22.2 18.3 1.3 25 9.7 E 11 17 6 9 1019.5 1019.1 0.0
29/08:00am 19.1 15.1 0.7 29 8.2 ESE 11 19 6 10 1019.4 1019.0 0.0
29/07:30am 17.0 15.0 -0.2 31 7.4 CALM 0 0 0 0 1019.4 1019.0 0.0
29/07:00am 14.4 12.6 1.3 41 5.7 CALM 0 0 0 0 1019.2 1018.8 0.0
29/06:30am 10.6 8.7 0.3 49 4.2 CALM 0 0 0 0 1019.1 1018.7 0.0
29/06:00am 10.6 7.4 -0.8 45 4.5 ESE 6 7 3 4 1018.8 1018.4 0.0
29/05:30am 12.1 8.8 -1.4 39 5.4 SE 6 7 3 4 1018.6 1018.2 0.0
29/05:00am 11.9 8.4 -1.6 39 5.4 SE 7 7 4 4 1018.2 1017.8 0.0
29/04:30am 11.7 8.5 -0.8 42 5.0 SE 6 7 3 4 1018.2 1017.8 0.0
29/04:00am 12.1 9.9 -1.8 38 5.5 CALM 0 0 0 0 1018.0 1017.6 0.0
29/03:30am 11.8 9.7 -1.0 41 5.2 CALM 0 0 0 0 1018.0 1017.6 0.0
29/03:00am 11.4 9.3 -0.7 43 4.9 CALM 0 0 0 0 1017.9 1017.5 0.0
29/02:30am 13.0 9.6 -2.1 35 6.0 E 6 7 3 4 1017.7 1017.3 0.0
29/02:00am 13.4 9.9 -1.3 36 6.0 ESE 7 9 4 5 1017.7 1017.3 0.0
29/01:30am 13.6 11.4 -1.9 34 6.2 CALM 0 0 0 0 1017.8 1017.4 0.0
29/01:00am 13.8 11.6 -1.4 35 6.2 CALM 0 0 0 0 1017.8 1017.4 0.0
29/12:30am 14.3 12.1 -1.3 34 6.4 CALM 0 0 0 0 1017.8 1017.4 0.0
29/12:00am 14.2 10.9 -1.0 35 6.3 SSE 6 7 3 4 1017.6 1017.2 0.0
 
Date/Time
WST
Temp
°C
App
Temp
°C
Dew
Point
°C
Rel
Hum
%
Delta-T
°C
Wind Press
QNH
hPa
Press
MSL
hPa
Rain since
9am
mm
Dir  Spd
km/h
Gust
km/h
Spd
kts
Gust
kts
28/11:30pm 16.0 12.1 -1.5 30 7.3 SSE 9 11 5 6 1017.5 1017.1 0.0
28/11:00pm 16.2 14.0 -1.8 29 7.4 CALM 0 0 0 0 1017.6 1017.2 0.0
28/10:30pm 16.6 14.3 -2.0 28 7.7 CALM 0 6 0 3 1017.9 1017.5 0.0
28/10:00pm 18.9 14.3 -3.9 21 9.2 SE 11 13 6 7 1017.9 1017.5 0.0
28/09:30pm 19.8 14.9 -3.8 20 9.7 SE 13 15 7 8 1017.8 1017.4 0.0
28/09:00pm 21.0 16.0 -4.2 18 10.4 ESE 13 17 7 9 1017.7 1017.3 0.0
28/08:30pm 21.1 15.8 -3.4 19 10.3 ESE 15 19 8 10 1017.7 1017.3 0.0
28/08:00pm 20.9 16.0 -3.6 19 10.2 ESE 13 19 7 10 1017.7 1017.3 0.0
28/07:30pm 20.6 15.7 -3.1 20 9.9 SE 13 13 7 7 1017.4 1017.0 0.0
28/07:00pm 21.3 16.9 -2.5 20 10.2 SE 11 13 6 7 1017.1 1016.7 0.0
28/06:30pm 22.6 18.1 -2.9 18 10.9 ESE 11 13 6 7 1016.7 1016.3 0.0
28/06:00pm 23.5 19.0 -2.9 17 11.4 ESE 11 13 6 7 1016.3 1015.9 0.0
28/05:30pm 25.2 20.6 -4.2 14 12.6 ESE 11 15 6 8 1016.0 1015.6 0.0
28/05:00pm 27.4 22.9 -3.4 13 13.6 ESE 11 17 6 9 1015.7 1015.3 0.0
28/04:30pm 29.1 23.7 -4.3 11 14.8 ESE 15 22 8 12 1015.5 1015.1 0.0
28/04:00pm 29.7 23.9 -5.1 10 15.2 SE 17 24 9 13 1015.3 1014.9 0.0
28/03:30pm 30.3 25.4 -3.4 11 15.3 ESE 13 20 7 11 1015.2 1014.8 0.0
28/03:00pm 30.0 24.2 -4.9 10 15.4 ESE 17 24 9 13 1015.2 1014.8 0.0
28/02:30pm 30.3 25.0 -3.4 11 15.3 ESE 15 24 8 13 1015.5 1015.1 0.0
28/02:00pm 29.7 24.2 -5.1 10 15.2 E 15 26 8 14 1015.6 1015.2 0.0
28/01:30pm 30.0 24.2 -4.9 10 15.4 E 17 28 9 15 1016.1 1015.7 0.0
28/01:00pm 29.8 24.0 -5.1 10 15.3 E 17 28 9 15 1016.5 1016.1 0.0
28/12:30pm 29.0 23.1 -5.7 10 15.0 ESE 17 26 9 14 1017.1 1016.7 0.0
28/12:00pm 29.3 22.9 -5.4 10 15.0 ENE 20 28 11 15 1017.8 1017.4 0.0
28/11:30am 28.7 22.5 -4.6 11 14.6 E 19 28 10 15 1018.4 1018.0 0.0
28/11:00am 27.8 21.6 -5.3 11 14.2 ENE 19 32 10 17 1019.0 1018.6 0.0
28/10:30am 27.1 20.3 -4.7 12 13.7 ENE 22 32 12 17 1019.2 1018.8 0.0
28/10:00am 26.3 18.3 -5.3 12 13.4 ENE 28 39 15 21 1019.7 1019.3 0.0
28/09:30am 25.5 18.3 -4.9 13 12.9 E 24 32 13 17 1020.3 1019.9 0.0
28/09:00am 25.2 17.7 -4.2 14 12.6 ENE 26 37 14 20 1020.5 1020.1 0.0
28/08:30am 23.5 16.9 -2.9 17 11.4 ENE 22 33 12 18 1020.8 1020.4 0.0
28/08:00am 21.4 16.6 -2.5 20 10.2 E 13 17 7 9 1020.8 1020.4 0.0
28/07:30am 19.9 15.6 -1.8 23 9.3 E 11 15 6 8 1020.5 1020.1 0.0
28/07:00am 17.6 14.4 -0.6 29 7.8 NE 6 11 3 6 1020.3 1019.9 0.0
28/06:30am 13.8 10.2 -2.2 33 6.4 NNW 7 9 4 5 1020.1 1019.7 0.0
28/06:00am 16.5 12.7 -3.6 25 8.0 E 7 9 4 5 1020.0 1019.6 0.0
28/05:30am 17.8 13.2 -4.2 22 8.8 E 11 15 6 8 1019.5 1019.1 0.0
28/05:00am 19.1 13.7 -4.4 20 9.4 E 15 24 8 13 1019.2 1018.8 0.0
28/04:30am 20.0 13.2 -5.0 18 10.0 E 22 33 12 18 1018.8 1018.4 0.0
28/04:00am 20.0 13.6 -5.0 18 10.0 E 20 33 11 18 1018.7 1018.3 0.0
28/03:30am 19.2 13.5 -3.6 21 9.3 ESE 17 24 9 13 1018.7 1018.3 0.0
28/03:00am 17.9 12.4 -2.4 25 8.4 ESE 17 22 9 12 1018.6 1018.2 0.0
28/02:30am 16.1 12.8 -1.0 31 7.2 SE 6 13 3 7 1018.7 1018.3 0.0
28/02:00am 17.0 13.5 -1.6 28 7.8 ENE 7 11 4 6 1018.5 1018.1 0.0
28/01:30am 18.7 13.9 -2.3 24 8.8 ESE 13 17 7 9 1018.5 1018.1 0.0
28/01:00am 19.2 14.5 -1.8 24 8.9 ESE 13 17 7 9 1018.5 1018.1 0.0
28/12:30am 20.2 15.1 -1.6 23 9.4 ESE 15 20 8 11 1018.6 1018.2 0.0
28/12:00am 21.0 15.6 -1.5 22 9.8 SE 17 20 9 11 1018.5 1018.1 0.0
 
Date/Time
WST
Temp
°C
App
Temp
°C
Dew
Point
°C
Rel
Hum
%
Delta-T
°C
Wind Press
QNH
hPa
Press
MSL
hPa
Rain since
9am
mm
Dir  Spd
km/h
Gust
km/h
Spd
kts
Gust
kts
27/11:30pm 21.7 16.4 -0.9 22 10.0 ESE 17 24 9 13 1018.5 1018.1 0.0
27/11:00pm 22.4 17.2 0.3 23 10.0 SE 17 26 9 14 1018.6 1018.2 0.0
27/10:30pm 22.8 17.4 1.2 24 10.0 SE 19 26 10 14 1018.7 1018.3 0.0
27/10:00pm 22.5 18.2 3.1 28 9.3 ESE 15 20 8 11 1018.7 1018.3 0.0
27/09:30pm 22.7 19.0 4.7 31 8.9 ESE 13 17 7 9 1018.5 1018.1 0.0
27/09:00pm 23.2 19.5 4.7 30 9.2 ESE 13 15 7 8 1018.3 1017.9 0.0
27/08:30pm 24.4 20.0 4.7 28 9.9 ESE 17 20 9 11 1018.1 1017.7 0.0
27/08:00pm 25.1 20.8 5.3 28 10.1 ESE 17 24 9 13 1017.9 1017.5 0.0
27/07:30pm 24.9 21.1 5.7 29 9.9 ESE 15 20 8 11 1017.5 1017.1 0.0
27/07:00pm 25.3 21.9 6.0 29 10.0 ESE 13 17 7 9 1017.1 1016.7 0.0
27/06:30pm 25.5 22.4 5.7 28 10.2 ESE 11 13 6 7 1016.7 1016.3 0.0
27/06:00pm 27.0 23.2 5.9 26 11.0 ESE 15 19 8 10 1016.4 1016.0 0.0
27/05:30pm 27.9 24.0 5.5 24 11.7 ESE 15 20 8 11 1016.1 1015.7 0.0
27/05:00pm 29.1 23.8 5.2 22 12.5 ESE 22 30 12 16 1015.8 1015.4 0.0
27/04:30pm 30.1 24.4 4.7 20 13.2 ESE 24 33 13 18 1015.5 1015.1 0.0
27/04:00pm 30.7 25.1 5.2 20 13.4 ESE 24 35 13 19 1015.2 1014.8 0.0
27/03:30pm 31.4 26.1 5.0 19 13.9 ESE 22 33 12 18 1015.0 1014.6 0.0
27/03:00pm 31.7 27.0 5.3 19 14.0 ESE 19 35 10 19 1014.8 1014.4 0.0
27/02:30pm 31.8 26.0 4.6 18 14.3 ESE 24 39 13 21 1014.8 1014.4 0.0
27/02:00pm 32.0 26.6 4.7 18 14.4 ESE 22 32 12 17 1014.8 1014.4 0.0
27/01:30pm 31.6 26.6 4.4 18 14.2 E 20 32 11 17 1015.1 1014.7 0.0
27/01:00pm 31.7 26.9 4.5 18 14.2 E 19 30 10 16 1015.5 1015.1 0.0
27/12:30pm 31.3 26.2 4.2 18 14.1 E 20 30 11 16 1015.9 1015.5 0.0
27/12:00pm 30.9 25.5 4.6 19 13.7 ESE 22 32 12 17 1016.3 1015.9 0.0
27/11:30am 31.0 26.2 4.7 19 13.8 E 19 33 10 18 1016.7 1016.3 0.0
27/11:00am 30.1 23.6 4.7 20 13.2 E 28 37 15 20 1017.1 1016.7 0.0
27/10:30am 29.7 24.3 4.4 20 13.1 ENE 22 32 12 17 1017.6 1017.2 0.0
27/10:00am 29.0 23.2 4.5 21 12.6 E 24 33 13 18 1017.9 1017.5 0.0
27/09:30am 28.1 23.1 4.4 22 12.1 E 20 32 11 17 1018.1 1017.7 0.0
27/09:00am 27.0 22.8 5.9 26 11.0 E 17 24 9 13 1018.3 1017.9 0.0
27/08:30am 25.4 21.3 6.1 29 10.0 E 17 20 9 11 1018.2 1017.8 0.0
27/08:00am 23.9 20.2 6.2 32 9.1 E 15 22 8 12 1018.2 1017.8 0.0
27/07:30am 22.1 19.5 6.3 36 8.1 ESE 9 13 5 7 1018.0 1017.6 0.0
27/07:00am 20.5 18.0 6.5 40 7.1 ESE 9 11 5 6 1017.9 1017.5 0.0
27/06:30am 18.3 15.8 6.5 46 5.9 SE 9 9 5 5 1017.6 1017.2 0.0
27/06:00am 18.4 15.5 6.6 46 5.9 SE 11 13 6 7 1017.3 1016.9 0.0
27/05:30am 18.9 16.0 6.4 44 6.3 SE 11 15 6 8 1016.7 1016.3 0.0
27/05:00am 19.2 16.3 6.7 44 6.3 SE 11 13 6 7 1016.3 1015.9 0.0
27/04:30am 19.9 17.4 6.6 42 6.7 ESE 9 13 5 7 1016.0 1015.6 0.0
27/04:00am 20.7 17.8 6.6 40 7.2 ESE 11 15 6 8 1015.7 1015.3 0.0
27/03:30am 21.3 17.6 6.4 38 7.6 ESE 15 20 8 11 1015.4 1015.0 0.0
27/03:00am 21.7 17.6 6.4 37 7.8 ESE 17 20 9 11 1015.1 1014.7 0.0
27/02:30am 22.4 18.0 6.6 36 8.1 ESE 19 26 10 14 1014.9 1014.5 0.0
27/02:00am 21.9 18.7 7.0 38 7.7 ESE 13 17 7 9 1014.8 1014.4 0.0
27/01:30am 21.7 18.5 6.8 38 7.6 SE 13 15 7 8 1014.7 1014.3 0.0
27/01:00am 21.3 18.7 6.0 37 7.7 SSE 9 13 5 7 1014.9 1014.5 0.0
27/12:30am 22.5 19.5 5.9 34 8.4 S 11 15 6 8 1014.9 1014.5 0.0
27/12:00am 23.9 20.7 6.7 33 8.9 SSE 13 17 7 9 1015.0 1014.6 0.0

Other Formats:

Comma delimited format used in spreadsheet applications
http://www.bom.gov.au/fwo/IDW60801/IDW60801.94206.axf

JavaScript Object Notation format (JSON) in row-major order
http://www.bom.gov.au/fwo/IDW60801/IDW60801.94206.json